Time;durP1;ratioP1;P1;durP2;ratioP2;P2;SDS_P1;SDS_P2;PMS_P1;PMS_P2;Temp;Humidity;BMP_temperature;BMP_pressure;BME280_temperature;BME280_humidity;BME280_pressure;Samples;Min_cycle;Max_cycle;Signal;HPM_P1;HPM_P2
2022/09/09 00:02:43;;;;;;;16.00;9.40;;;;;;;9.58;62.86;101207.57;1767980;81;21200;-57
2022/09/09 00:06:16;;;;;;;17.65;8.55;;;;;;;9.51;62.74;101202.86;1767999;81;21224;-55
2022/09/09 00:09:26;;;;;;;15.28;7.65;;;;;;;9.45;62.80;101213.03;1768002;81;21193;-55
2022/09/09 00:13:00;;;;;;;17.40;7.60;;;;;;;9.39;62.88;101206.27;1787176;78;21201;-56
2022/09/09 00:16:16;;;;;;;11.93;7.10;;;;;;;9.35;62.97;101206.22;1803761;79;21308;-56
2022/09/09 00:19:42;;;;;;;10.63;7.33;;;;;;;9.32;63.14;101209.25;1803363;79;21241;-55
2022/09/09 00:22:52;;;;;;;13.03;7.20;;;;;;;9.28;63.21;101202.84;1773934;78;21189;-56
2022/09/09 00:26:23;;;;;;;11.63;6.75;;;;;;;9.27;63.30;101207.47;1802793;79;21150;-56
2022/09/09 00:29:50;;;;;;;11.90;7.22;;;;;;;9.25;63.36;101208.11;1804025;79;21363;-56
2022/09/09 00:33:08;;;;;;;13.08;7.03;;;;;;;9.21;63.35;101207.19;1795094;79;21252;-56
2022/09/09 00:36:20;;;;;;;11.12;6.50;;;;;;;9.16;63.38;101209.00;1802931;79;21204;-57
2022/09/09 00:39:42;;;;;;;10.85;6.58;;;;;;;9.08;63.33;101218.42;1803341;79;21224;-57
2022/09/09 00:42:51;;;;;;;10.38;6.78;;;;;;;9.03;63.37;101215.27;1802616;79;21331;-56
2022/09/09 00:46:50;;;;;;;11.48;7.10;;;;;;;9.01;63.54;101209.95;1803251;79;21213;-55
2022/09/09 00:50:24;;;;;;;12.23;6.70;;;;;;;8.98;63.56;101216.20;1802659;79;21181;-57
2022/09/09 00:54:25;;;;;;;9.40;5.83;;;;;;;8.94;63.57;101217.51;1803249;79;21205;-56
2022/09/09 00:57:37;;;;;;;9.28;6.05;;;;;;;8.89;63.64;101211.62;1802914;79;21181;-56
2022/09/09 01:01:14;;;;;;;10.23;6.47;;;;;;;8.91;63.84;101211.81;1803034;79;21177;-56
2022/09/09 01:04:24;;;;;;;8.80;5.92;;;;;;;8.91;63.82;101217.80;1803050;79;21206;-55
2022/09/09 01:07:31;;;;;;;12.15;6.85;;;;;;;8.91;63.81;101215.08;1793326;79;21184;-56
2022/09/09 01:10:58;;;;;;;8.43;5.58;;;;;;;8.87;63.84;101213.63;1802955;79;21196;-56
2022/09/09 01:14:25;;;;;;;10.15;6.15;;;;;;;8.85;63.81;101226.55;1795330;79;21181;-56
2022/09/09 01:17:39;;;;;;;10.10;5.97;;;;;;;8.80;63.80;101226.98;1804607;79;21173;-55
2022/09/09 01:21:28;;;;;;;10.80;5.85;;;;;;;8.74;63.75;101228.06;1804895;79;21279;-57
2022/09/09 01:25:13;;;;;;;11.73;6.47;;;;;;;8.68;63.75;101229.52;1804684;79;21217;-57
2022/09/09 01:28:35;;;;;;;10.25;5.80;;;;;;;8.67;63.91;101231.02;1735851;81;21246;-56
2022/09/09 01:31:47;;;;;;;10.78;5.97;;;;;;;8.66;64.02;101225.18;1768907;78;21281;-56
2022/09/09 01:34:54;;;;;;;11.40;6.10;;;;;;;8.68;64.09;101226.78;1804528;79;21146;-57
2022/09/09 01:38:04;;;;;;;10.45;6.25;;;;;;;8.66;64.12;101219.23;1804978;79;21245;-55
2022/09/09 01:41:10;;;;;;;9.28;6.08;;;;;;;8.65;64.01;101222.11;1794689;79;21166;-56
2022/09/09 01:44:13;;;;;;;9.58;6.05;;;;;;;8.57;63.92;101221.95;1804816;78;21331;-56
2022/09/09 01:47:07;;;;;;;9.38;6.33;;;;;;;8.51;63.92;101230.22;1804718;79;21174;-55
2022/09/09 01:50:20;;;;;;;9.18;5.90;;;;;;;8.45;63.96;101223.11;1804873;79;21174;-55
2022/09/09 01:53:28;;;;;;;8.88;5.60;;;;;;;8.42;63.98;101220.66;1794761;79;21252;-55
2022/09/09 01:57:06;;;;;;;10.38;5.58;;;;;;;8.39;64.10;101225.01;1805076;79;21189;-56
2022/09/09 02:00:19;;;;;;;12.30;5.53;;;;;;;8.37;64.09;101221.06;1804880;79;21543;-55
2022/09/09 02:03:33;;;;;;;8.90;5.10;;;;;;;8.34;64.21;101225.44;1796409;79;21260;-55
2022/09/09 02:06:45;;;;;;;8.18;5.12;;;;;;;8.34;64.22;101236.34;1796525;79;21169;-55
2022/09/09 02:09:52;;;;;;;9.23;5.58;;;;;;;8.34;64.27;101236.87;1804725;79;21710;-55
2022/09/09 02:13:09;;;;;;;8.58;5.37;;;;;;;8.29;64.19;101236.43;1805664;79;21178;-56
2022/09/09 02:16:20;;;;;;;7.62;4.83;;;;;;;8.25;64.18;101240.42;1804812;79;21181;-54
2022/09/09 02:19:33;;;;;;;10.25;5.72;;;;;;;8.23;64.26;101239.72;1804720;79;21544;-56
2022/09/09 02:22:40;;;;;;;9.58;5.60;;;;;;;8.18;64.19;101234.63;1803448;78;21185;-56
2022/09/09 02:25:47;;;;;;;8.98;5.25;;;;;;;8.11;64.17;101243.02;1804788;79;21194;-56
2022/09/09 02:28:58;;;;;;;9.88;5.50;;;;;;;8.07;64.22;101246.17;1804926;79;21347;-58
2022/09/09 02:32:09;;;;;;;9.60;5.35;;;;;;;8.06;64.37;101244.42;1804646;79;21193;-57
2022/09/09 02:35:24;;;;;;;10.85;5.05;;;;;;;8.07;64.44;101244.28;1804988;79;21204;-56
2022/09/09 02:38:30;;;;;;;8.63;4.95;;;;;;;8.04;64.38;101237.75;1805029;79;21178;-54
2022/09/09 02:41:43;;;;;;;9.78;5.58;;;;;;;8.03;64.41;101243.34;1804426;79;21288;-55
2022/09/09 02:44:49;;;;;;;;;;;;;;;8.00;64.38;101253.16;1807249;79;21205;-56
2022/09/09 02:48:19;;;;;;;9.00;5.67;;;;;;;7.96;64.41;101258.55;1804296;79;20278;-56
2022/09/09 02:51:43;;;;;;;8.73;5.55;;;;;;;7.92;64.49;101257.95;1797326;79;21704;-58
2022/09/09 02:54:51;;;;;;;8.03;5.22;;;;;;;7.90;64.55;101272.21;1804553;79;21186;-56
2022/09/09 02:57:58;;;;;;;12.07;6.12;;;;;;;7.91;64.67;101273.09;1804543;79;21288;-56
2022/09/09 03:01:05;;;;;;;9.40;6.15;;;;;;;7.92;64.61;101281.61;1804971;79;21186;-56
2022/09/09 03:04:14;;;;;;;8.78;5.45;;;;;;;7.86;64.54;101281.67;1804966;79;21213;-57
2022/09/09 03:07:22;;;;;;;10.15;5.65;;;;;;;7.87;64.68;101287.97;1805050;79;21217;-56
2022/09/09 03:10:27;;;;;;;11.90;6.15;;;;;;;7.84;64.64;101286.88;1804804;79;21166;-57
2022/09/09 03:13:34;;;;;;;8.65;5.90;;;;;;;7.82;64.66;101293.00;1804783;79;21209;-57
2022/09/09 03:16:42;;;;;;;12.53;6.87;;;;;;;7.80;64.67;101289.53;1801646;79;21161;-56
2022/09/09 03:19:52;;;;;;;11.28;6.50;;;;;;;7.76;64.68;101288.06;1803070;79;21177;-57
2022/09/09 03:23:04;;;;;;;11.28;6.03;;;;;;;7.75;64.69;101284.98;1803068;79;21244;-58
2022/09/09 03:26:12;;;;;;;10.15;6.30;;;;;;;7.74;64.81;101291.45;1802978;79;21177;-59
2022/09/09 03:29:19;;;;;;;12.20;6.80;;;;;;;7.78;64.95;101295.61;1803004;79;21175;-57
2022/09/09 03:32:27;;;;;;;10.28;6.65;;;;;;;7.80;64.96;101293.09;1803008;79;21194;-59
2022/09/09 03:35:35;;;;;;;10.93;6.15;;;;;;;7.81;64.99;101292.13;1802975;79;21158;-57
2022/09/09 03:38:43;;;;;;;17.17;7.08;;;;;;;7.79;64.86;101283.70;1803128;79;21197;-58
2022/09/09 03:41:50;;;;;;;12.03;6.45;;;;;;;7.75;64.82;101290.44;1803417;79;21182;-59
2022/09/09 03:44:59;;;;;;;15.72;6.75;;;;;;;7.74;64.88;101295.53;1802982;79;21167;-56
2022/09/09 03:48:06;;;;;;;11.15;6.65;;;;;;;7.74;64.90;101288.72;1803824;79;21272;-57
2022/09/09 03:51:11;;;;;;;12.50;6.85;;;;;;;7.74;64.88;101287.36;1802978;79;21209;-58
2022/09/09 03:54:19;;;;;;;11.50;6.95;;;;;;;7.69;64.86;101291.83;1803262;79;21178;-58
2022/09/09 03:57:25;;;;;;;12.25;6.28;;;;;;;7.70;64.92;101296.78;1803020;79;21181;-57
2022/09/09 04:00:33;;;;;;;10.82;6.22;;;;;;;7.69;64.96;101301.36;1795911;79;21212;-58
2022/09/09 04:03:39;;;;;;;10.82;6.33;;;;;;;7.69;65.00;101307.33;1795398;79;21353;-58
2022/09/09 04:06:45;;;;;;;13.08;6.95;;;;;;;7.73;65.13;101314.23;1804195;79;21339;-57
2022/09/09 04:09:54;;;;;;;12.55;7.25;;;;;;;7.79;65.19;101312.31;1802989;78;21158;-57
2022/09/09 04:13:02;;;;;;;13.28;7.20;;;;;;;7.82;65.20;101312.08;1795291;79;21165;-57
2022/09/09 04:16:10;;;;;;;14.55;6.87;;;;;;;7.83;65.15;101326.05;1802406;79;21311;-58
2022/09/09 04:19:17;;;;;;;10.23;6.25;;;;;;;7.89;65.28;101322.78;1811410;79;21180;-58
2022/09/09 04:22:24;;;;;;;10.18;6.37;;;;;;;7.98;65.34;101331.50;1811387;79;21243;-56
2022/09/09 04:25:31;;;;;;;13.20;6.67;;;;;;;8.06;65.35;101333.05;1811200;79;21582;-58
2022/09/09 04:28:38;;;;;;;15.65;6.87;;;;;;;8.12;65.35;101330.64;1789374;78;21259;-57
2022/09/09 04:31:45;;;;;;;12.37;7.05;;;;;;;8.21;65.42;101339.88;1811372;79;21200;-58
2022/09/09 04:34:52;;;;;;;15.05;6.05;;;;;;;8.32;65.47;101334.34;1811110;79;21346;-58
2022/09/09 04:37:58;;;;;;;13.83;6.28;;;;;;;8.42;65.48;101339.34;1811205;79;21275;-57
2022/09/09 04:41:05;;;;;;;12.28;6.28;;;;;;;8.51;65.47;101338.02;1810736;79;21322;-58
2022/09/09 04:44:12;;;;;;;10.55;5.83;;;;;;;8.59;65.47;101344.12;1810744;79;21192;-58
2022/09/09 04:47:18;;;;;;;13.72;6.25;;;;;;;8.66;65.50;101346.64;1810989;79;21227;-59
2022/09/09 04:50:24;;;;;;;12.18;6.17;;;;;;;8.74;65.52;101333.16;1812000;78;21252;-58
2022/09/09 04:53:29;;;;;;;13.30;6.50;;;;;;;8.82;65.61;101330.59;1811919;78;21207;-59
2022/09/09 04:56:36;;;;;;;11.00;5.92;;;;;;;8.93;65.70;101333.19;1815603;78;21573;-58
2022/09/09 04:59:43;;;;;;;10.58;5.85;;;;;;;9.03;65.77;101326.75;1812056;78;21184;-59
2022/09/09 05:02:49;;;;;;;11.22;5.30;;;;;;;9.15;65.78;101330.17;1826562;78;21195;-58
2022/09/09 05:05:52;;;;;;;17.42;6.12;;;;;;;9.25;65.83;101328.31;1816514;78;21490;-58
2022/09/09 05:08:49;;;;;;;11.78;5.58;;;;;;;9.38;65.83;101332.98;1787434;78;21728;-57
2022/09/09 05:11:55;;;;;;;14.15;5.35;;;;;;;9.48;65.84;101335.19;1828810;77;21152;-58
2022/09/09 05:15:05;;;;;;;13.55;5.55;;;;;;;9.59;65.78;101337.80;1814459;78;21278;-58
2022/09/09 05:18:12;;;;;;;10.70;5.05;;;;;;;9.69;65.83;101339.98;1802299;78;21776;-59
2022/09/09 05:21:21;;;;;;;9.53;5.65;;;;;;;9.82;65.81;101336.44;1816842;78;21212;-58
2022/09/09 05:24:27;;;;;;;14.60;5.37;;;;;;;9.92;65.81;101341.39;1780879;79;21513;-58
2022/09/09 05:27:33;;;;;;;13.32;5.60;;;;;;;10.03;65.82;101341.70;1803027;79;21201;-57
2022/09/09 05:30:40;;;;;;;11.55;5.75;;;;;;;10.13;65.81;101357.09;1798437;78;21192;-58
2022/09/09 05:33:45;;;;;;;13.20;5.53;;;;;;;10.26;65.83;101371.31;1800800;78;21207;-58
2022/09/09 05:36:58;;;;;;;11.53;5.30;;;;;;;10.39;65.85;101372.34;1803808;79;21243;-58
2022/09/09 05:40:12;;;;;;;10.08;4.92;;;;;;;10.54;65.89;101373.05;1784729;79;21238;-55
2022/09/09 05:43:20;;;;;;;10.65;5.05;;;;;;;10.70;65.89;101359.23;1770411;80;21251;-57
2022/09/09 05:46:30;;;;;;;10.25;4.95;;;;;;;10.86;65.86;101359.42;1787536;80;21344;-57
2022/09/09 05:49:47;;;;;;;10.40;4.20;;;;;;;11.11;65.83;101362.77;1848025;76;22739;-59
2022/09/09 05:52:52;;;;;;;7.65;4.40;;;;;;;11.15;65.75;101370.52;1794400;78;21373;-58
2022/09/09 05:56:11;;;;;;;8.35;4.35;;;;;;;11.28;65.69;101368.77;1780766;79;21189;-59
2022/09/09 05:59:23;;;;;;;8.08;4.10;;;;;;;11.40;65.66;101368.91;1730794;82;21230;-59
2022/09/09 06:02:37;;;;;;;7.08;3.80;;;;;;;11.55;65.64;101378.28;1801346;79;21209;-57
2022/09/09 06:05:54;;;;;;;9.23;3.67;;;;;;;11.67;65.58;101373.79;1794771;79;21256;-58
2022/09/09 06:09:17;;;;;;;8.08;3.42;;;;;;;11.83;65.61;101383.53;1705929;82;21765;-56
2022/09/09 06:12:25;;;;;;;7.87;3.45;;;;;;;11.98;65.55;101377.83;1802329;79;21230;31
2022/09/09 06:15:35;;;;;;;8.23;3.83;;;;;;;12.11;65.54;101378.77;1565969;90;21374;-57
2022/09/09 06:18:44;;;;;;;7.15;3.12;;;;;;;12.24;65.50;101383.29;1595643;86;21292;-57
2022/09/09 06:22:06;;;;;;;;;;;;;;;12.37;65.49;101374.11;1606902;87;21502;-58
2022/09/09 06:25:14;;;;;;;4.67;2.02;;;;;;;12.53;65.48;101387.93;1560785;91;20232;-57
2022/09/09 06:28:19;;;;;;;5.25;2.55;;;;;;;12.62;65.36;101392.43;1564012;90;21279;-57
2022/09/09 06:31:34;;;;;;;6.83;2.72;;;;;;;12.69;65.30;101388.52;1569147;90;21276;-56
2022/09/09 06:34:36;;;;;;;9.03;3.10;;;;;;;12.75;65.24;101395.59;1584206;89;21268;-56
2022/09/09 06:37:29;;;;;;;4.47;2.15;;;;;;;12.83;65.26;101402.50;1585498;90;21734;-56
2022/09/09 06:40:15;;;;;;;6.58;2.37;;;;;;;12.90;65.21;101407.69;1575396;90;21247;-57
2022/09/09 06:43:08;;;;;;;4.97;2.17;;;;;;;13.00;65.23;101404.30;1566997;90;21272;-56
2022/09/09 06:46:01;;;;;;;4.40;2.00;;;;;;;13.10;65.23;101405.03;1568499;90;21227;-57
2022/09/09 06:48:57;;;;;;;4.72;1.77;;;;;;;13.20;65.21;101407.64;1573849;90;21240;-56
2022/09/09 06:51:43;;;;;;;10.00;2.20;;;;;;;13.27;65.13;101410.91;1586656;90;21806;-58
2022/09/09 06:54:37;;;;;;;6.25;2.25;;;;;;;13.35;65.07;101407.34;1587723;89;21241;-57
2022/09/09 06:57:24;;;;;;;3.80;2.00;;;;;;;13.43;65.04;101413.70;1586457;89;21247;-57
2022/09/09 07:00:20;;;;;;;10.43;2.02;;;;;;;13.51;65.00;101404.59;1589906;89;21277;-57
2022/09/09 07:03:27;;;;;;;10.03;8.03;;;;;;;13.60;64.99;101413.73;1632930;86;21283;-59
2022/09/09 07:06:46;;;;;;;5.10;2.62;;;;;;;13.69;64.94;101422.33;1626149;88;21662;-57
2022/09/09 07:09:55;;;;;;;3.27;2.05;;;;;;;13.78;64.86;101411.70;1584636;89;21672;-58
2022/09/09 07:13:04;;;;;;;5.10;1.80;;;;;;;13.84;64.82;101416.00;1596476;89;21284;-58
2022/09/09 07:16:20;;;;;;;4.85;1.32;;;;;;;13.94;64.79;101418.05;1590522;90;21269;-56
2022/09/09 07:19:27;;;;;;;2.20;1.37;;;;;;;14.04;64.73;101416.50;1563044;90;21766;-58
2022/09/09 07:22:33;;;;;;;5.85;1.65;;;;;;;14.12;64.67;101409.10;1579239;89;21529;-58
2022/09/09 07:25:39;;;;;;;2.35;1.30;;;;;;;14.20;64.61;101409.09;1594829;87;21288;-58
2022/09/09 07:28:47;;;;;;;2.02;1.12;;;;;;;14.27;64.52;101410.67;1593364;89;21275;-59
2022/09/09 07:31:56;;;;;;;2.20;1.35;;;;;;;14.33;64.39;101405.83;1623214;87;21492;-56
2022/09/09 07:35:04;;;;;;;2.37;1.30;;;;;;;14.40;64.33;101402.19;1618325;87;21233;-55
2022/09/09 07:38:12;;;;;;;2.77;1.15;;;;;;;14.45;64.27;101401.66;1602181;88;21254;-58
2022/09/09 07:41:24;;;;;;;4.72;1.52;;;;;;;14.52;64.20;101408.20;1589425;89;21820;-56
2022/09/09 07:44:36;;;;;;;5.65;1.70;;;;;;;14.57;64.14;101414.88;1566092;90;21750;-56
2022/09/09 07:47:45;;;;;;;5.00;1.22;;;;;;;14.66;64.05;101412.98;1580547;89;21299;-56
2022/09/09 07:50:55;;;;;;;3.35;1.60;;;;;;;14.74;64.00;101414.33;1593845;89;21256;-56
2022/09/09 07:54:09;;;;;;;2.85;1.30;;;;;;;14.82;63.92;101404.66;1595043;89;21320;-56
2022/09/09 07:57:16;;;;;;;2.58;1.55;;;;;;;14.87;63.83;101389.27;1591866;89;21256;-58
2022/09/09 08:00:26;;;;;;;1.65;1.10;;;;;;;14.95;63.74;101398.89;1575129;90;21747;-59
2022/09/09 08:03:33;;;;;;;3.75;1.20;;;;;;;15.02;63.66;101400.41;1592951;89;21793;-58
2022/09/09 08:06:46;;;;;;;2.42;1.10;;;;;;;15.07;63.49;101396.61;1593562;89;21220;-57
2022/09/09 08:09:54;;;;;;;2.80;1.00;;;;;;;15.11;63.45;101400.70;1593208;89;21264;-57
2022/09/09 08:13:04;;;;;;;7.37;1.40;;;;;;;15.14;63.31;101396.23;1586526;89;21722;-58
2022/09/09 08:16:17;;;;;;;1.75;1.10;;;;;;;15.19;63.26;101397.91;1604317;85;21347;-55
2022/09/09 08:19:24;;;;;;;1.82;1.00;;;;;;;15.27;63.28;101393.72;1617504;87;21296;-55
2022/09/09 08:22:37;;;;;;;3.45;1.30;;;;;;;15.33;63.11;101388.88;1633576;87;21809;-55
2022/09/09 08:25:45;;;;;;;3.60;1.37;;;;;;;15.36;63.02;101387.13;1634258;87;21317;-56
2022/09/09 08:28:53;;;;;;;4.85;1.30;;;;;;;15.43;62.96;101396.41;1634690;87;21344;-55
2022/09/09 08:32:04;;;;;;;1.60;1.10;;;;;;;15.49;62.85;101392.08;1586276;90;21823;-54
2022/09/09 08:35:13;;;;;;;2.47;1.10;;;;;;;15.54;62.74;101382.19;1596047;87;21343;-56
2022/09/09 08:38:20;;;;;;;2.98;1.70;;;;;;;15.59;62.65;101393.55;1621857;88;21289;-55
2022/09/09 08:42:01;;;;;;;2.92;1.22;;;;;;;15.62;62.56;101382.14;1613391;86;21267;-56
2022/09/09 08:45:29;;;;;;;1.87;1.07;;;;;;;15.71;62.48;101388.47;1608872;88;21243;-55
2022/09/09 08:49:00;;;;;;;2.60;1.40;;;;;;;15.76;62.40;101382.70;1555429;90;21263;-56
2022/09/09 08:52:08;;;;;;;6.80;1.20;;;;;;;15.85;62.32;101383.00;1616993;86;21264;-56
2022/09/09 08:55:37;;;;;;;3.37;1.15;;;;;;;15.97;62.22;101375.98;1605799;89;21220;-54
2022/09/09 08:58:59;;;;;;;4.12;1.35;;;;;;;16.03;62.04;101393.72;1606321;89;21235;-54
2022/09/09 09:02:34;;;;;;;1.87;0.95;;;;;;;16.03;61.84;101384.89;1580773;89;21248;-52
2022/09/09 09:05:58;;;;;;;7.55;2.60;;;;;;;16.07;61.71;101382.11;1601254;89;21272;-55
2022/09/09 09:10:30;;;;;;;4.83;1.35;;;;;;;16.15;61.61;101374.25;1631472;79;21281;-57
2022/09/09 09:13:56;;;;;;;1.87;1.20;;;;;;;16.24;61.43;101373.12;1740067;81;21222;-55
2022/09/09 09:17:13;;;;;;;2.33;1.20;;;;;;;16.29;61.24;101372.03;1754653;81;21174;-56
2022/09/09 09:20:22;;;;;;;1.45;1.00;;;;;;;16.35;61.22;101380.43;1755623;81;21197;-56
2022/09/09 09:23:36;;;;;;;2.62;1.00;;;;;;;16.41;61.02;101385.20;1736863;81;21276;-56
2022/09/09 09:26:45;;;;;;;1.30;0.82;;;;;;;16.42;60.88;101384.69;1755023;81;21750;-53
2022/09/09 09:29:54;;;;;;;6.87;1.30;;;;;;;16.48;60.68;101385.84;1755192;81;21693;-54
2022/09/09 09:33:27;;;;;;;1.05;0.82;;;;;;;16.55;60.57;101381.29;1753893;81;21268;-55
2022/09/09 09:36:54;;;;;;;9.20;5.95;;;;;;;16.64;60.47;101373.22;1725962;83;21194;-54
2022/09/09 09:40:01;;;;;;;2.72;1.05;;;;;;;16.72;60.34;101377.28;1725754;83;21359;-54
2022/09/09 09:43:09;;;;;;;2.10;1.10;;;;;;;16.85;60.12;101378.84;1725987;83;21209;-54
2022/09/09 09:46:31;;;;;;;3.72;1.20;;;;;;;17.00;60.00;101378.32;1725469;83;21232;-56
2022/09/09 09:49:42;;;;;;;1.07;0.90;;;;;;;17.18;59.95;101373.20;1726009;83;21221;-59
2022/09/09 09:53:06;;;;;;;1.45;0.72;;;;;;;17.33;59.81;101376.27;1725405;83;21221;-58
2022/09/09 09:56:17;;;;;;;4.28;1.20;;;;;;;17.46;59.69;101364.51;1708486;83;21197;-61
2022/09/09 09:59:42;;;;;;;1.35;0.90;;;;;;;17.56;59.42;101368.69;1725537;83;21801;-60
2022/09/09 10:02:53;;;;;;;3.92;1.10;;;;;;;17.62;59.28;101358.72;1725245;83;21560;-58
2022/09/09 10:06:07;;;;;;;1.82;1.07;;;;;;;17.69;59.07;101354.12;1725394;83;21352;-58
2022/09/09 10:09:35;;;;;;;1.75;0.88;;;;;;;17.75;58.86;101356.95;1719106;81;21754;-59
2022/09/09 10:13:08;;;;;;;3.83;0.90;;;;;;;17.85;58.82;101364.38;1737770;81;21175;-56
2022/09/09 10:16:24;;;;;;;1.72;1.12;;;;;;;17.98;58.78;101365.57;1738535;81;21181;-57
2022/09/09 10:19:43;;;;;;;3.52;1.12;;;;;;;18.06;58.49;101359.89;1729314;81;21244;-59
2022/09/09 10:22:58;;;;;;;2.25;1.17;;;;;;;18.08;58.37;101353.08;1732760;81;21208;-58
2022/09/09 10:26:22;;;;;;;2.52;1.12;;;;;;;18.11;58.12;101353.22;1734953;82;21709;-59
2022/09/09 10:29:46;;;;;;;3.70;1.27;;;;;;;18.11;57.92;101358.77;1735722;82;21248;-57
2022/09/09 10:33:15;;;;;;;5.75;1.10;;;;;;;18.03;57.81;101355.59;1735614;82;21224;-59
2022/09/09 10:36:31;;;;;;;1.67;1.07;;;;;;;18.10;57.86;101362.57;1735838;81;21211;-58
2022/09/09 10:39:45;;;;;;;2.20;1.00;;;;;;;18.22;57.73;101370.69;1738972;81;21233;-59
2022/09/09 10:42:55;;;;;;;2.83;1.10;;;;;;;18.29;57.57;101370.19;1724688;83;21769;-58
2022/09/09 10:46:09;;;;;;;2.62;1.00;;;;;;;18.31;57.33;101364.78;1725103;81;21809;-58
2022/09/09 10:50:03;;;;;;;1.82;0.70;;;;;;;18.38;57.12;101364.31;1731914;81;21251;-59
2022/09/09 10:53:24;;;;;;;6.42;1.60;;;;;;;18.36;56.94;101353.91;1741279;81;21182;-56
2022/09/09 10:56:30;;;;;;;4.30;2.85;;;;;;;18.50;57.02;101348.84;1724455;83;21367;-58
2022/09/09 10:59:46;;;;;;;3.52;1.12;;;;;;;18.71;57.03;101361.22;1724551;83;21229;-57
2022/09/09 11:03:03;;;;;;;2.50;1.40;;;;;;;18.91;56.91;101359.42;1662574;86;21258;-57
2022/09/09 11:06:25;;;;;;;1.67;1.40;;;;;;;19.06;56.71;101354.56;1656447;86;21240;-58
2022/09/09 11:09:40;;;;;;;2.65;1.17;;;;;;;19.19;56.55;101356.02;1660452;85;21355;-56
2022/09/09 11:13:11;;;;;;;5.92;1.30;;;;;;;19.38;56.46;101360.50;1655022;86;21622;-56
2022/09/09 11:16:31;;;;;;;1.80;1.00;;;;;;;19.50;56.16;101360.19;1647884;86;21248;-57
2022/09/09 11:19:47;;;;;;;3.27;1.07;;;;;;;19.57;55.89;101354.97;1659250;85;21382;-56
2022/09/09 11:23:16;;;;;;;3.75;1.42;;;;;;;19.70;55.82;101364.72;1649525;86;21255;-56
2022/09/09 11:26:37;;;;;;;2.12;1.25;;;;;;;19.89;55.65;101361.64;1658456;85;21235;-60
2022/09/09 11:30:18;;;;;;;4.30;1.22;;;;;;;20.10;55.51;101360.05;1670906;84;21279;-59
2022/09/09 11:34:00;;;;;;;3.67;1.25;;;;;;;20.26;55.17;101362.44;1676104;85;21772;-59
2022/09/09 11:37:48;;;;;;;1.92;1.30;;;;;;;20.39;54.88;101361.04;1673716;85;21191;-57
2022/09/09 11:41:13;;;;;;;5.83;1.40;;;;;;;20.51;54.56;101353.73;1669853;85;21800;-60
2022/09/09 11:44:29;;;;;;;3.17;1.05;;;;;;;20.52;54.16;101353.52;1669730;84;21215;-57
2022/09/09 11:47:38;;;;;;;3.40;1.27;;;;;;;20.56;54.03;101348.38;1671957;85;21320;-58
2022/09/09 11:50:47;;;;;;;1.17;0.90;;;;;;;20.62;53.82;101339.15;1670354;85;21245;-60
2022/09/09 11:54:08;;;;;;;4.70;1.17;;;;;;;20.69;53.60;101345.01;1669810;85;21286;-60
2022/09/09 11:57:17;;;;;;;4.72;1.10;;;;;;;20.62;53.21;101336.37;1644332;85;21216;-59
2022/09/09 12:00:49;;;;;;;2.27;1.30;;;;;;;20.61;53.11;101341.63;1657068;86;21235;-59
2022/09/09 12:04:10;;;;;;;1.47;1.15;;;;;;;20.62;53.01;101336.37;1682404;84;21150;-59
2022/09/09 12:07:31;;;;;;;2.02;1.07;;;;;;;20.66;52.82;101329.31;1659452;84;21590;-60
2022/09/09 12:10:42;;;;;;;2.25;1.32;;;;;;;20.71;52.57;101332.27;1678751;84;21234;-61
2022/09/09 12:13:53;;;;;;;2.25;1.20;;;;;;;20.71;52.24;101325.30;1675069;84;21214;-59
2022/09/09 12:17:02;;;;;;;2.05;1.20;;;;;;;20.59;51.88;101320.98;1684340;84;21210;-60
2022/09/09 12:20:45;;;;;;;2.33;1.17;;;;;;;20.51;51.65;101317.56;1671469;84;21229;-58
2022/09/09 12:23:59;;;;;;;3.45;1.00;;;;;;;20.34;51.55;101332.45;1667572;85;21206;-59
2022/09/09 12:27:31;;;;;;;3.35;1.17;;;;;;;20.26;51.42;101328.54;1665361;85;22177;-59
2022/09/09 12:30:41;;;;;;;2.87;1.20;;;;;;;20.23;51.37;101324.77;1674910;84;21241;-60
2022/09/09 12:33:52;;;;;;;5.90;1.37;;;;;;;20.29;51.28;101323.06;1670639;84;21199;-59
2022/09/09 12:37:09;;;;;;;4.55;1.15;;;;;;;20.27;51.01;101332.15;1686322;84;21312;-58
2022/09/09 12:40:39;;;;;;;2.75;1.00;;;;;;;20.29;51.02;101330.02;1730042;82;21220;-59
2022/09/09 12:43:43;;;;;;;12.53;6.25;;;;;;;20.22;50.70;101341.67;1734131;82;21338;-59
2022/09/09 12:46:52;;;;;;;9.90;3.87;;;;;;;20.06;50.36;101335.15;1736359;82;21192;-59
2022/09/09 12:50:00;;;;;;;6.58;3.40;;;;;;;19.99;50.26;101335.67;1738776;82;21330;-59
2022/09/09 12:53:15;;;;;;;2.62;1.17;;;;;;;19.98;50.05;101345.09;1739765;82;21220;-59
2022/09/09 12:56:36;;;;;;;1.80;1.17;;;;;;;19.99;49.92;101334.28;1725908;82;21191;-58
2022/09/09 12:59:53;;;;;;;1.77;1.00;;;;;;;20.01;49.75;101341.33;1741258;82;21180;-61
2022/09/09 13:03:04;;;;;;;5.08;1.77;;;;;;;20.08;49.55;101337.16;1729452;81;21245;-58
2022/09/09 13:06:34;;;;;;;8.78;2.80;;;;;;;20.11;49.33;101337.59;1756276;81;21164;-58
2022/09/09 13:09:40;;;;;;;4.72;1.50;;;;;;;20.02;49.01;101333.33;1753496;81;21180;-58
2022/09/09 13:12:47;;;;;;;3.98;1.80;;;;;;;19.94;48.78;101332.67;1724782;81;21216;-58
2022/09/09 13:16:05;;;;;;;2.77;1.60;;;;;;;19.89;48.63;101343.57;1749156;81;21781;-58
2022/09/09 13:19:16;;;;;;;4.87;1.57;;;;;;;19.83;48.45;101336.95;1754837;81;22084;-58
2022/09/09 13:22:31;;;;;;;4.20;1.30;;;;;;;19.71;48.22;101344.19;1755377;81;21717;-58
2022/09/09 13:25:38;;;;;;;1.95;1.05;;;;;;;19.57;48.10;101340.25;1756690;81;21337;-58
2022/09/09 13:28:46;;;;;;;5.40;1.00;;;;;;;19.54;48.04;101335.08;1698841;83;21200;-57
2022/09/09 13:31:52;;;;;;;1.17;0.90;;;;;;;19.50;47.89;101335.20;1672065;85;21246;-56
2022/09/09 13:35:09;;;;;;;2.55;0.70;;;;;;;19.51;47.74;101331.34;1683499;84;21264;-57
2022/09/09 13:38:17;;;;;;;3.05;1.05;;;;;;;19.47;47.53;101328.16;1662495;85;21700;-57
2022/09/09 13:41:30;;;;;;;1.85;0.90;;;;;;;19.49;47.38;101329.33;1668222;84;21261;-57
2022/09/09 13:44:46;;;;;;;2.30;1.00;;;;;;;19.54;47.32;101332.30;1682837;84;21221;-58
2022/09/09 13:47:55;;;;;;;1.75;0.82;;;;;;;19.57;47.32;101334.13;1656760;85;21237;-57
2022/09/09 13:51:11;;;;;;;1.45;1.00;;;;;;;19.66;47.21;101337.58;1667177;85;21348;-57
2022/09/09 13:54:21;;;;;;;3.17;1.10;;;;;;;19.66;46.96;101344.52;1656717;85;21204;-57
2022/09/09 13:57:31;;;;;;;5.07;1.20;;;;;;;19.65;46.77;101335.84;1683422;84;21652;-58
2022/09/09 14:00:39;;;;;;;2.80;0.80;;;;;;;19.68;46.68;101339.63;1655084;86;21608;-58
2022/09/09 14:03:47;;;;;;;2.47;1.42;;;;;;;19.70;46.52;101343.02;1682311;84;21199;-58
2022/09/09 14:06:52;;;;;;;1.27;0.82;;;;;;;19.70;46.39;101338.33;1761846;81;21231;-57
2022/09/09 14:10:00;;;;;;;4.25;1.10;;;;;;;19.74;46.31;101333.20;1761375;81;21234;-58
2022/09/09 14:13:11;;;;;;;1.37;0.90;;;;;;;19.76;46.15;101330.52;1761522;81;21199;-57
2022/09/09 14:16:18;;;;;;;3.45;1.00;;;;;;;19.76;45.98;101325.49;1761504;81;21175;-57
2022/09/09 14:19:24;;;;;;;3.77;0.85;;;;;;;19.75;45.88;101323.27;1761565;80;21191;-57
2022/09/09 14:22:30;;;;;;;5.42;1.15;;;;;;;19.75;45.75;101327.44;1688784;84;21219;-58
2022/09/09 14:25:36;;;;;;;1.55;0.95;;;;;;;19.74;45.62;101331.82;1695529;83;21261;-57
2022/09/09 14:28:45;;;;;;;4.30;1.10;;;;;;;19.69;45.46;101323.26;1686314;83;21321;-56
2022/09/09 14:31:53;;;;;;;3.92;1.15;;;;;;;19.61;45.31;101329.88;1695039;83;21635;-57
2022/09/09 14:34:58;;;;;;;5.47;1.57;;;;;;;19.52;45.19;101320.57;1695008;83;21252;-58
2022/09/09 14:38:06;;;;;;;5.08;1.50;;;;;;;19.45;45.12;101328.02;1693704;84;21739;-57
2022/09/09 14:41:16;;;;;;;4.33;2.05;;;;;;;19.39;45.07;101325.57;1695296;83;21567;-57
2022/09/09 14:44:23;;;;;;;5.30;1.82;;;;;;;19.33;44.97;101335.27;1694595;84;21262;-56
2022/09/09 14:47:30;;;;;;;4.03;1.55;;;;;;;19.27;44.87;101334.13;1694283;83;21248;-57
2022/09/09 14:50:39;;;;;;;3.65;1.42;;;;;;;19.21;44.81;101339.14;1692792;84;21177;-57
2022/09/09 14:53:42;;;;;;;2.47;1.20;;;;;;;19.14;44.67;101342.41;1658534;84;21233;-58
2022/09/09 14:56:47;;;;;;;2.72;1.30;;;;;;;19.07;44.61;101349.36;1680079;85;21771;-57
2022/09/09 14:59:53;;;;;;;4.33;1.20;;;;;;;19.00;44.54;101348.46;1686350;84;21264;-58
2022/09/09 15:03:02;;;;;;;2.08;1.07;;;;;;;18.91;44.47;101353.88;1694393;83;21330;-58